Mill Village, PA (16427)

6:43 AM EST on November 18, 2017 (GMT -0500)
2 miles southeast of Mill Village | | Change Station
Active Advisory: Wind Advisory

Elev 1572 ft 41.86 °N, 79.94 °W | Updated 3 minutes ago

Rain
Rain
39.6 °F
Feels Like 31 °F
N
15.0
Wind Variable Wind from South
Gusts 21.0 mph

Today
High -- | Low -- °F
--% Chance of Precip.
Yesterday
High -- | Low -- °F
Precip. -- in
Pressure 29.62 in
Visibility 10.0 miles
Clouds Mostly Cloudy 2800 ft
Overcast 3600 ft
Windchill 31 °F
Dew Point 38 °F
Humidity 94%
Rainfall 0.14 in
Snow Depth Not available.
7:13 AM 4:56 PM
Waning Crescent, 0% visible
SPECI KERI 181125Z 19019G25KT 10SM -RA BKN028 OVC036 07/04 A2962 RMK AO2 PK WND 20026/1111 RAE09B18 P0001 T00670044
Pressure 29.62 in
Visibility 10.0 miles
Clouds Mostly Cloudy 2800 ft
Overcast 3600 ft
Windchill 31 °F
Dew Point 38 °F
Humidity 94%
Rainfall 0.14 in
Snow Depth Not available.
7:13 AM 4:56 PM
Waning Crescent, 0% visible
SPECI KERI 181125Z 19019G25KT 10SM -RA BKN028 OVC036 07/04 A2962 RMK AO2 PK WND 20026/1111 RAE09B18 P0001 T00670044

Get Your Daily Forecast Email!

Thanks for signing up!

Be on the lookout for a verification email in your inbox.

You'll start receiving severe weather alerts in your inbox..

×

10-Day Weather Forecast

Almanac

Astronomy

Nov. 18, 2017 Rise Set
Actual Time
Civil Twilight
Nautical Twilight
Astronomical Twilight
Moon
Length of Visible Light
Length of Day
Tomorrow will be .
, % of the Moon is Illuminated

Today's Extremes

State Highs State Lows

Community

WunderPhotos

Category 6

Welcome to Category 6. This is the collective home for Weather Underground's featured writeups by Dr. Jeff Masters (right), Bob Henson (left), Chris Burt, and other regular contributors.

Nearby

Air Quality

  Air Quality AQ Index Pollutant
Not available.

Snow Depth

Station Depth Elevation

Earthquake Activity

City Distance Mag. Time & Date
Minimum magnitude displayed is 2.5.

Coastal Water Temperatures

Place Temperature

Stations

Nearby Weather Stations

Station Location Temp. Windchill Dew Point Humidity Wind Precip. Elev Updated Type
                   

Watches & Warnings

Wind Advisory
Issued: 4:40 AM EST Nov. 18, 2017 – National Weather Service

... Wind Advisory remains in effect from 7 PM this evening to
10 am EST Sunday...

* timing... tonight and early Sunday.

* Winds... damaging winds are possible in any thunderstorms that
develop with the cold frontal passage early this evening. Winds
will become northwest and gust to over 50 mph from this evening
into early Sunday morning.

* Impacts... downed branches and power lines. Objects that are
not secured such as trash cans or lawn furniture may be blown
away.

Precautionary/preparedness actions...

A Wind Advisory is issued for sustained winds of 31 to 39 mph or
gusts between 46 and 57 mph. Winds of this magnitude can cause
minor property damage without extra precautions. Motorists should
use caution especially motorists in high profile vehicles.